Time;durP1;ratioP1;P1;durP2;ratioP2;P2;SDS_P1;SDS_P2;PMS_P1;PMS_P2;Temp;Humidity;BMP_temperature;BMP_pressure;BME280_temperature;BME280_humidity;BME280_pressure;Samples;Min_cycle;Max_cycle;Signal;HPM_P1;HPM_P2
2023/02/06 00:01:35;;;;;;;24.97;5.90;;;5.60;98.00;;;;;;5104527;28;20259;-91
2023/02/06 00:04:04;;;;;;;25.37;6.27;;;5.60;98.20;;;;;;5101369;28;20164;-91
2023/02/06 00:06:32;;;;;;;32.30;7.37;;;5.60;98.50;;;;;;5099569;28;20537;-92
2023/02/06 00:08:58;;;;;;;29.23;6.77;;;5.80;98.60;;;;;;5101032;28;20168;-91
2023/02/06 00:11:25;;;;;;;25.37;6.63;;;5.70;98.30;;;;;;5101177;28;20213;-91
2023/02/06 00:13:52;;;;;;;30.30;7.37;;;5.70;98.80;;;;;;5099365;28;20183;-91
2023/02/06 00:16:24;;;;;;;31.57;6.77;;;5.70;98.30;;;;;;5101257;28;20179;-90
2023/02/06 00:18:51;;;;;;;28.63;6.53;;;5.70;98.10;;;;;;5101023;28;20251;-91
2023/02/06 00:21:20;;;;;;;30.87;7.77;;;5.80;98.40;;;;;;5110146;28;20155;-86
2023/02/06 00:23:47;;;;;;;21.90;6.00;;;5.60;99.10;;;;;;5117659;28;20171;-86
2023/02/06 00:26:13;;;;;;;28.60;6.20;;;5.50;99.90;;;;;;5118628;28;20148;-86
2023/02/06 00:28:42;;;;;;;31.00;6.10;;;5.50;99.90;;;;;;5116646;28;20156;-89
2023/02/06 00:31:09;;;;;;;30.00;6.63;;;5.50;99.90;;;;;;5111908;28;20242;-91
2023/02/06 00:33:40;;;;;;;24.20;7.23;;;5.50;99.90;;;;;;5123780;28;20166;-94
2023/02/06 00:36:36;;;;;;;32.10;6.27;;;5.40;99.90;;;;;;5119247;28;20199;-93
2023/02/06 00:39:17;;;;;;;22.83;6.37;;;5.30;99.90;;;;;;5114630;28;20166;-92
2023/02/06 00:41:44;;;;;;;24.37;6.30;;;5.30;99.90;;;;;;5098322;28;20175;-91
2023/02/06 00:44:10;;;;;;;26.57;6.23;;;5.50;99.90;;;;;;5101208;28;20174;-92
2023/02/06 00:46:39;;;;;;;28.07;6.23;;;5.40;99.90;;;;;;5109396;28;20211;-91
2023/02/06 00:49:05;;;;;;;22.70;6.63;;;5.30;99.90;;;;;;5105066;28;20199;-91
2023/02/06 00:51:30;;;;;;;21.40;6.53;;;5.20;99.90;;;;;;5089785;28;20652;-85
2023/02/06 00:53:56;;;;;;;33.87;6.20;;;5.20;99.90;;;;;;5102414;28;20171;-88
2023/02/06 00:56:22;;;;;;;28.33;7.93;;;5.10;99.90;;;;;;5094162;28;20290;-90
2023/02/06 00:58:49;;;;;;;27.73;6.13;;;5.20;99.90;;;;;;5094904;28;20175;-88
2023/02/06 01:01:15;;;;;;;33.63;7.83;;;5.40;99.90;;;;;;5094276;28;20624;-91
2023/02/06 01:03:40;;;;;;;30.70;6.47;;;5.20;99.90;;;;;;5093992;28;20187;-92
2023/02/06 01:06:06;;;;;;;37.10;6.63;;;5.30;99.90;;;;;;5093694;28;20177;-90
2023/02/06 01:08:32;;;;;;;25.43;5.90;;;5.30;99.90;;;;;;5096050;28;20183;-86
2023/02/06 01:10:58;;;;;;;38.77;7.77;;;5.20;99.90;;;;;;5110380;28;20211;-87
2023/02/06 01:13:23;;;;;;;28.03;6.57;;;5.20;99.90;;;;;;5113695;28;20164;-86
2023/02/06 01:15:49;;;;;;;30.10;7.80;;;5.20;99.90;;;;;;5115832;28;20175;-84
2023/02/06 01:18:46;;;;;;;32.77;6.57;;;5.30;99.90;;;;;;5113296;28;20182;-83
2023/02/06 01:21:24;;;;;;;28.23;6.63;;;5.40;99.90;;;;;;5102199;28;20577;-87
2023/02/06 01:23:52;;;;;;;34.67;8.23;;;5.50;99.90;;;;;;5094902;28;20171;-92
2023/02/06 01:26:20;;;;;;;23.83;6.70;;;5.40;99.90;;;;;;5098029;28;20184;-86
2023/02/06 01:28:48;;;;;;;29.03;6.63;;;5.50;99.90;;;;;;5111519;28;20172;-89
2023/02/06 01:31:16;;;;;;;26.10;7.53;;;5.50;99.90;;;;;;5117574;28;20206;-84
2023/02/06 01:33:49;;;;;;;26.53;6.77;;;5.40;99.90;;;;;;5128855;28;20182;-86
2023/02/06 01:36:19;;;;;;;26.67;6.57;;;5.30;99.90;;;;;;5126891;28;20174;-90
2023/02/06 01:39:20;;;;;;;27.47;6.93;;;5.30;99.90;;;;;;5115691;28;20235;-87
2023/02/06 01:41:46;;;;;;;27.90;6.97;;;5.40;99.90;;;;;;5117722;28;20167;-90
2023/02/06 01:44:21;;;;;;;33.30;7.20;;;5.40;99.90;;;;;;5117267;28;20224;-91
2023/02/06 01:46:51;;;;;;;27.33;6.47;;;5.50;99.90;;;;;;5106878;28;20223;-90
2023/02/06 01:49:32;;;;;;;29.27;6.23;;;5.40;99.90;;;;;;5136482;28;20183;-89
2023/02/06 01:52:19;;;;;;;31.60;7.70;;;5.40;99.90;;;;;;5137360;28;20269;-89
2023/02/06 01:54:51;;;;;;;28.47;5.73;;;5.40;99.90;;;;;;5128816;28;20191;-91
2023/02/06 01:57:18;;;;;;;32.90;6.73;;;5.50;99.90;;;;;;5109807;28;20176;-90
2023/02/06 01:59:49;;;;;;;25.63;6.17;;;5.40;99.90;;;;;;5080338;28;20176;-90
2023/02/06 02:02:18;;;;;;;25.83;6.00;;;5.40;99.90;;;;;;5097167;28;20236;-91
2023/02/06 02:04:45;;;;;;;25.60;6.27;;;5.40;99.90;;;;;;5102034;28;20172;-90
2023/02/06 02:07:19;;;;;;;25.50;6.07;;;5.30;99.90;;;;;;5116013;28;20187;-85
2023/02/06 02:09:46;;;;;;;31.17;6.67;;;5.20;99.90;;;;;;5109214;28;20218;-92
2023/02/06 02:12:14;;;;;;;22.20;5.90;;;5.10;99.90;;;;;;5097255;28;20217;-91
2023/02/06 02:18:08;;;;;;;33.87;7.43;;;5.10;99.90;;;;;;5096693;28;20246;-91
2023/02/06 02:21:06;;;;;;;27.67;6.17;;;5.10;99.90;;;;;;5094465;28;20187;-90
2023/02/06 02:23:36;;;;;;;29.83;6.83;;;5.10;99.90;;;;;;5098129;28;20246;-91
2023/02/06 02:26:48;;;;;;;30.47;6.70;;;5.00;99.90;;;;;;5097899;28;20221;-92
2023/02/06 02:29:33;;;;;;;31.70;6.63;;;5.10;99.90;;;;;;5097805;28;20160;-92
2023/02/06 02:32:22;;;;;;;29.30;7.10;;;5.00;99.90;;;;;;5098851;28;20179;-91
2023/02/06 02:35:06;;;;;;;29.30;6.13;;;5.00;99.90;;;;;;5079265;28;20208;-91
2023/02/06 02:37:55;;;;;;;32.73;7.03;;;4.90;99.90;;;;;;5081472;28;20168;-90
2023/02/06 02:40:35;;;;;;;28.33;7.27;;;5.00;99.90;;;;;;5084888;28;20175;-89
2023/02/06 02:43:42;;;;;;;30.33;7.27;;;5.00;99.90;;;;;;5084772;28;20172;-88
2023/02/06 02:46:22;;;;;;;26.47;6.83;;;5.10;99.90;;;;;;5067641;28;20176;-92
2023/02/06 02:48:51;;;;;;;42.13;8.60;;;5.20;99.90;;;;;;5078600;28;20362;-91
2023/02/06 02:51:18;;;;;;;27.97;6.67;;;5.30;99.90;;;;;;5118316;28;20310;-90
2023/02/06 02:53:43;;;;;;;28.13;6.60;;;5.20;99.90;;;;;;5126068;28;20239;-91
2023/02/06 02:56:17;;;;;;;28.73;6.33;;;5.20;99.90;;;;;;5119970;28;20206;-91
2023/02/06 02:58:44;;;;;;;40.47;7.00;;;5.30;99.90;;;;;;5101575;28;20642;-91
2023/02/06 03:01:15;;;;;;;25.07;5.83;;;5.30;99.90;;;;;;5120020;28;20229;-91
2023/02/06 03:03:43;;;;;;;31.27;5.77;;;5.30;99.90;;;;;;5107467;28;20274;-91
2023/02/06 03:06:31;;;;;;;27.90;6.50;;;5.30;99.90;;;;;;5095716;28;20175;-92
2023/02/06 03:09:38;;;;;;;25.60;5.60;;;5.30;99.90;;;;;;5118224;28;20171;-91
2023/02/06 03:12:33;;;;;;;26.30;6.97;;;5.20;99.90;;;;;;5062929;28;20223;-91
2023/02/06 03:15:07;;;;;;;25.37;6.53;;;5.20;99.90;;;;;;5096791;28;20539;-91
2023/02/06 03:17:53;;;;;;;27.57;6.00;;;5.20;99.90;;;;;;5096959;28;20623;-91
2023/02/06 03:20:20;;;;;;;38.03;6.70;;;5.20;99.90;;;;;;5102467;28;20156;-89
2023/02/06 03:22:48;;;;;;;23.97;5.70;;;5.20;99.90;;;;;;5115580;28;20171;-91
2023/02/06 03:25:24;;;;;;;24.23;6.37;;;5.30;99.90;;;;;;5099657;28;20252;-89
2023/02/06 03:27:52;;;;;;;22.70;6.07;;;5.20;99.90;;;;;;5098024;28;20225;-90
2023/02/06 03:30:20;;;;;;;32.20;7.87;;;5.30;99.90;;;;;;5084548;28;20237;-91
2023/02/06 03:32:51;;;;;;;25.40;5.83;;;5.30;99.90;;;;;;5117643;28;20175;-89
2023/02/06 03:35:25;;;;;;;28.33;6.30;;;5.30;99.90;;;;;;5099274;28;20148;-86
2023/02/06 03:37:51;;;;;;;32.03;7.03;;;5.20;99.90;;;;;;5114315;28;20172;-90
2023/02/06 03:40:23;;;;;;;22.37;6.27;;;5.30;99.90;;;;;;5091583;28;20215;-91
2023/02/06 03:43:08;;;;;;;26.23;6.40;;;5.20;99.90;;;;;;5085161;28;20202;-91
2023/02/06 03:45:41;;;;;;;27.13;6.60;;;5.20;99.90;;;;;;5090562;28;20267;-90
2023/02/06 03:48:13;;;;;;;24.63;5.60;;;5.40;99.90;;;;;;5095546;28;20207;-92
2023/02/06 03:50:45;;;;;;;33.27;6.77;;;5.30;99.90;;;;;;5098118;28;20226;-86
2023/02/06 03:53:12;;;;;;;23.97;5.97;;;5.40;99.90;;;;;;5091168;28;20200;-90
2023/02/06 03:55:39;;;;;;;34.50;7.10;;;5.30;99.90;;;;;;5076422;28;20188;-89
2023/02/06 03:58:09;;;;;;;28.23;6.70;;;5.30;99.90;;;;;;5076303;28;20176;-89
2023/02/06 04:00:37;;;;;;;28.00;6.50;;;5.30;99.90;;;;;;5075983;28;20172;-92
2023/02/06 04:03:04;;;;;;;28.07;5.73;;;5.40;99.90;;;;;;5076841;28;20548;-90
2023/02/06 04:05:29;;;;;;;27.17;6.87;;;5.30;99.90;;;;;;5116802;28;20174;-83
2023/02/06 04:07:55;;;;;;;28.20;6.30;;;5.20;99.90;;;;;;5118088;28;20270;-90
2023/02/06 04:10:22;;;;;;;28.67;6.17;;;5.20;99.90;;;;;;5113232;28;20228;-90
2023/02/06 04:12:47;;;;;;;28.57;6.00;;;5.20;99.90;;;;;;5139057;28;20163;-86
2023/02/06 04:15:21;;;;;;;29.87;6.60;;;5.20;99.90;;;;;;5121804;28;20165;-86
2023/02/06 04:17:53;;;;;;;33.90;7.00;;;5.20;99.90;;;;;;5131490;28;20174;-84
2023/02/06 04:20:19;;;;;;;25.70;6.30;;;5.30;99.90;;;;;;5135001;28;20172;-86
2023/02/06 04:22:49;;;;;;;25.70;7.30;;;5.20;99.90;;;;;;5119111;28;20220;-92
2023/02/06 04:25:20;;;;;;;28.63;6.37;;;5.20;99.90;;;;;;5126554;28;20166;-88
2023/02/06 04:27:46;;;;;;;27.30;6.27;;;5.30;99.90;;;;;;5123949;28;20186;-86
2023/02/06 04:30:12;;;;;;;33.30;6.87;;;5.20;99.90;;;;;;5125355;28;20210;-85
2023/02/06 04:32:38;;;;;;;31.40;7.30;;;5.20;99.90;;;;;;5124549;28;20193;-91
2023/02/06 04:35:04;;;;;;;30.40;7.20;;;5.30;99.90;;;;;;5137810;28;20170;-86
2023/02/06 04:37:30;;;;;;;25.57;6.63;;;5.20;99.90;;;;;;5138266;28;20186;-82
2023/02/06 04:39:56;;;;;;;22.00;6.67;;;5.20;99.90;;;;;;5138574;28;20222;-88
2023/02/06 04:42:25;;;;;;;31.13;6.90;;;5.20;99.90;;;;;;5139280;27;20185;-83
2023/02/06 04:44:57;;;;;;;29.57;7.20;;;5.20;99.90;;;;;;5139126;28;20190;-90
2023/02/06 04:47:22;;;;;;;29.50;6.97;;;5.20;99.90;;;;;;5134409;28;20508;-90
2023/02/06 04:50:10;;;;;;;37.77;7.67;;;5.10;99.90;;;;;;5133603;28;20202;-91
2023/02/06 04:52:36;;;;;;;29.00;6.97;;;5.10;99.90;;;;;;5118742;28;20187;-90
2023/02/06 04:55:16;;;;;;;24.87;6.07;;;5.00;99.90;;;;;;5117174;28;20299;-89
2023/02/06 04:57:42;;;;;;;40.00;7.70;;;4.90;99.90;;;;;;5120382;28;20226;-87
2023/02/06 05:00:09;;;;;;;30.70;6.60;;;4.80;99.90;;;;;;5130017;28;20171;-89
2023/02/06 05:02:38;;;;;;;32.23;7.13;;;4.80;99.90;;;;;;5121660;28;20170;-90
2023/02/06 05:05:05;;;;;;;29.03;7.03;;;4.90;99.90;;;;;;5105184;28;20182;-91
2023/02/06 05:07:30;;;;;;;36.63;8.43;;;4.80;99.90;;;;;;5103525;28;20183;-88
2023/02/06 05:09:56;;;;;;;32.27;7.17;;;4.80;99.90;;;;;;5100519;28;20273;-92
2023/02/06 05:12:30;;;;;;;30.10;6.00;;;4.80;99.90;;;;;;5111942;28;20247;-86
2023/02/06 05:14:56;;;;;;;31.50;7.03;;;4.80;99.90;;;;;;5100527;28;20167;-92
2023/02/06 05:17:23;;;;;;;32.40;6.50;;;4.70;99.90;;;;;;5097360;28;20170;-89
2023/02/06 05:19:50;;;;;;;26.93;7.30;;;4.80;99.90;;;;;;5096566;28;20178;-91
2023/02/06 05:22:15;;;;;;;33.03;7.27;;;4.70;99.90;;;;;;5106538;28;20176;-90
2023/02/06 05:24:41;;;;;;;23.47;7.53;;;4.70;99.90;;;;;;5105341;28;20760;-88
2023/02/06 05:27:08;;;;;;;27.87;6.90;;;4.80;99.90;;;;;;5104026;28;20239;-90
2023/02/06 05:29:34;;;;;;;26.87;7.20;;;4.80;99.90;;;;;;5096469;28;20186;-91
2023/02/06 05:32:01;;;;;;;35.47;7.27;;;4.70;99.90;;;;;;5098056;28;20168;-91
2023/02/06 05:34:27;;;;;;;31.37;6.77;;;4.60;99.90;;;;;;5098504;28;20184;-91
2023/02/06 05:36:53;;;;;;;26.93;7.73;;;4.60;99.90;;;;;;5104485;28;20172;-89
2023/02/06 05:39:19;;;;;;;29.43;7.40;;;4.60;99.90;;;;;;5099673;28;20674;-90
2023/02/06 05:42:00;;;;;;;32.07;7.93;;;4.70;99.90;;;;;;5098818;28;20229;-90
2023/02/06 05:44:25;;;;;;;32.33;7.10;;;4.80;99.90;;;;;;5108174;28;20162;-91
2023/02/06 05:46:51;;;;;;;25.93;6.77;;;4.70;99.90;;;;;;5116592;28;20168;-87
2023/02/06 05:49:20;;;;;;;31.20;6.63;;;4.60;99.90;;;;;;5113377;28;20213;-88
2023/02/06 05:51:47;;;;;;;29.07;7.13;;;4.60;99.90;;;;;;5101318;28;20215;-91
2023/02/06 05:54:22;;;;;;;38.93;8.47;;;4.70;99.90;;;;;;5102738;28;20221;-90
2023/02/06 05:56:49;;;;;;;31.20;8.17;;;4.80;99.90;;;;;;5103495;28;20175;-88
2023/02/06 05:59:15;;;;;;;30.93;7.50;;;4.70;99.90;;;;;;5111801;28;20163;-86
2023/02/06 06:01:45;;;;;;;39.00;9.07;;;4.80;99.90;;;;;;5121530;28;20175;-89
2023/02/06 06:04:51;;;;;;;38.97;8.03;;;4.80;99.90;;;;;;5119649;28;20156;-89
2023/02/06 06:07:28;;;;;;;30.03;6.53;;;4.80;99.90;;;;;;5104251;28;20186;-91
2023/02/06 06:09:55;;;;;;;32.50;7.30;;;4.90;99.90;;;;;;5101076;28;20203;-91
2023/02/06 06:12:21;;;;;;;28.93;6.37;;;4.80;99.90;;;;;;5082602;28;20192;-86
2023/02/06 06:14:46;;;;;;;27.97;6.53;;;4.80;99.90;;;;;;5100832;28;20502;-91
2023/02/06 06:17:12;;;;;;;30.90;7.40;;;4.60;99.90;;;;;;5100190;28;20180;-90
2023/02/06 06:19:38;;;;;;;28.80;7.17;;;4.50;99.90;;;;;;5100764;28;20264;-93
2023/02/06 06:22:04;;;;;;;30.83;7.33;;;4.50;99.90;;;;;;5103336;28;20176;-91
2023/02/06 06:24:29;;;;;;;33.40;8.70;;;4.60;99.90;;;;;;5113654;28;20152;-88
2023/02/06 06:26:55;;;;;;;23.73;7.80;;;4.40;99.90;;;;;;5120500;28;20185;-88
2023/02/06 06:29:24;;;;;;;34.90;8.13;;;4.50;99.90;;;;;;5120753;28;20152;-90
2023/02/06 06:32:46;;;;;;;34.20;7.63;;;4.30;99.90;;;;;;5103526;28;20203;-91
2023/02/06 06:35:32;;;;;;;29.83;8.00;;;4.30;99.90;;;;;;5129647;28;20189;-90
2023/02/06 06:38:18;;;;;;;34.37;8.10;;;4.30;99.90;;;;;;5128774;28;20217;-90
2023/02/06 06:40:49;;;;;;;30.50;8.23;;;4.30;99.90;;;;;;5127029;28;20192;-89
2023/02/06 06:43:15;;;;;;;29.17;7.57;;;4.30;99.90;;;;;;5134928;28;20162;-87
2023/02/06 06:45:40;;;;;;;31.33;7.37;;;4.30;99.90;;;;;;5110212;28;20159;-90
2023/02/06 06:48:08;;;;;;;27.53;8.83;;;4.20;99.90;;;;;;5116858;28;20184;-87
2023/02/06 06:50:37;;;;;;;25.40;6.80;;;4.30;99.90;;;;;;5103757;28;20206;-90
2023/02/06 06:53:38;;;;;;;28.87;8.83;;;4.30;99.90;;;;;;5101370;28;20654;-90
2023/02/06 06:56:06;;;;;;;34.30;9.10;;;4.30;99.90;;;;;;5100204;28;20167;-91
2023/02/06 06:58:33;;;;;;;30.10;8.33;;;4.40;99.90;;;;;;5100581;28;20214;-88
2023/02/06 07:00:58;;;;;;;37.90;9.73;;;4.40;99.90;;;;;;5119131;28;20235;-85
2023/02/06 07:03:25;;;;;;;35.27;9.17;;;4.40;99.90;;;;;;5127477;28;20187;-87
2023/02/06 07:05:51;;;;;;;26.57;9.37;;;4.30;99.90;;;;;;5115396;28;20171;-85
2023/02/06 07:08:28;;;;;;;35.40;12.57;;;4.30;99.90;;;;;;5098443;28;20167;-87
2023/02/06 07:10:56;;;;;;;29.50;9.53;;;4.30;99.90;;;;;;5097224;28;20211;-87
2023/02/06 07:13:22;;;;;;;40.83;10.60;;;4.20;99.90;;;;;;5095010;28;20205;-86
2023/02/06 07:15:48;;;;;;;37.43;11.57;;;4.20;99.90;;;;;;5095529;28;20571;-86
2023/02/06 07:18:13;;;;;;;39.20;11.50;;;4.20;99.90;;;;;;5095596;28;20596;-87
2023/02/06 07:20:39;;;;;;;43.30;14.77;;;4.20;99.90;;;;;;5095853;28;20270;-83
2023/02/06 07:23:05;;;;;;;36.60;12.60;;;4.40;99.90;;;;;;5096805;28;20178;-85
2023/02/06 07:25:31;;;;;;;50.80;14.73;;;4.40;99.90;;;;;;5097241;28;20168;-86
2023/02/06 07:27:56;;;;;;;45.17;14.33;;;4.40;99.90;;;;;;5103700;28;20167;-87
2023/02/06 07:30:22;;;;;;;35.47;15.77;;;4.40;99.90;;;;;;5096182;28;20337;-87
2023/02/06 07:32:54;;;;;;;49.50;16.40;;;4.40;99.90;;;;;;5094744;28;20639;-86
2023/02/06 07:35:19;;;;;;;47.50;17.30;;;4.40;99.90;;;;;;5110119;28;20212;-86
2023/02/06 07:37:45;;;;;;;45.57;15.73;;;4.40;99.90;;;;;;5122029;28;20631;-87
2023/02/06 07:40:11;;;;;;;43.67;18.33;;;4.40;99.90;;;;;;5130436;28;20198;-85
2023/02/06 07:42:39;;;;;;;45.80;15.93;;;4.50;99.90;;;;;;5124481;28;20226;-86
2023/02/06 07:45:07;;;;;;;43.27;16.47;;;4.50;99.90;;;;;;5116458;28;20167;-87
2023/02/06 07:47:33;;;;;;;52.03;17.67;;;4.50;99.90;;;;;;5116024;28;20631;-85
2023/02/06 07:50:03;;;;;;;48.93;17.37;;;4.60;99.90;;;;;;5115594;28;20210;-86
2023/02/06 07:52:30;;;;;;;52.20;16.97;;;4.60;99.90;;;;;;5095435;28;20203;-86
2023/02/06 07:54:55;;;;;;;64.30;17.53;;;4.70;99.90;;;;;;5094942;28;20168;-87
2023/02/06 07:57:28;;;;;;;41.93;14.60;;;4.60;99.90;;;;;;5096706;28;20233;-85
2023/02/06 07:59:54;;;;;;;59.87;16.70;;;4.60;99.90;;;;;;5099537;28;20171;-86
2023/02/06 08:02:20;;;;;;;46.57;15.07;;;4.60;99.90;;;;;;5117241;28;20164;-85
2023/02/06 08:04:45;;;;;;;40.87;14.63;;;4.60;99.90;;;;;;5109656;28;20168;-84
2023/02/06 08:07:17;;;;;;;47.47;17.20;;;4.50;99.90;;;;;;5102224;28;20178;-86
2023/02/06 08:09:43;;;;;;;44.40;17.03;;;4.40;99.90;;;;;;5096364;28;20275;-86
2023/02/06 08:12:09;;;;;;;47.10;16.03;;;4.30;99.90;;;;;;5087172;28;20210;-85
2023/02/06 08:14:34;;;;;;;47.30;15.20;;;4.20;99.90;;;;;;5098597;28;20172;-86
2023/02/06 08:17:00;;;;;;;52.27;14.57;;;4.20;99.90;;;;;;5109201;28;20186;-85
2023/02/06 08:19:26;;;;;;;44.30;15.57;;;4.10;99.90;;;;;;5115541;28;20620;-86
2023/02/06 08:21:52;;;;;;;44.37;14.90;;;4.10;99.90;;;;;;5103480;28;20195;-87
2023/02/06 08:24:20;;;;;;;47.97;15.93;;;4.10;99.90;;;;;;5118532;28;20160;-87
2023/02/06 08:26:49;;;;;;;46.93;15.80;;;4.20;99.90;;;;;;5116089;28;20178;-87
2023/02/06 08:29:15;;;;;;;43.90;16.00;;;4.20;99.90;;;;;;5104791;28;20243;-86
2023/02/06 08:31:41;;;;;;;40.83;15.23;;;4.30;99.90;;;;;;5105320;28;20234;-86
2023/02/06 08:34:12;;;;;;;44.83;15.17;;;4.40;99.90;;;;;;5096150;28;20168;-87
2023/02/06 08:36:42;;;;;;;48.73;16.10;;;4.50;99.90;;;;;;5096026;28;20198;-87
2023/02/06 08:39:09;;;;;;;41.57;15.57;;;4.70;99.90;;;;;;5096516;28;20266;-86
2023/02/06 08:41:40;;;;;;;47.10;16.37;;;4.50;99.90;;;;;;5104686;28;20160;-85
2023/02/06 08:44:10;;;;;;;37.50;15.17;;;4.50;99.90;;;;;;5108653;28;20228;-84
2023/02/06 08:46:38;;;;;;;47.67;16.07;;;4.30;99.90;;;;;;5105913;28;20186;-87
2023/02/06 08:49:07;;;;;;;38.53;15.23;;;4.20;99.90;;;;;;5078990;28;20198;-88
2023/02/06 08:51:35;;;;;;;43.43;16.83;;;4.20;99.90;;;;;;5098639;28;20703;-86
2023/02/06 08:54:07;;;;;;;55.80;17.93;;;4.20;99.90;;;;;;5116839;28;20186;-81
2023/02/06 08:56:35;;;;;;;47.90;17.63;;;4.10;99.90;;;;;;5113559;28;20163;-85
2023/02/06 08:59:02;;;;;;;43.90;17.57;;;4.30;99.90;;;;;;5106767;28;20179;-85
2023/02/06 09:01:36;;;;;;;44.73;16.30;;;4.20;99.90;;;;;;5103003;28;20287;-87
2023/02/06 09:04:07;;;;;;;42.90;15.47;;;4.20;99.90;;;;;;5098354;28;20225;-86
2023/02/06 09:06:38;;;;;;;49.47;16.23;;;4.10;99.90;;;;;;5095479;28;20171;-86
2023/02/06 09:09:05;;;;;;;38.40;15.27;;;4.10;99.90;;;;;;5095485;28;20235;-87
2023/02/06 09:11:31;;;;;;;40.10;15.40;;;4.00;99.90;;;;;;5081947;28;20211;-86
2023/02/06 09:13:59;;;;;;;41.77;14.53;;;4.00;99.90;;;;;;5100123;28;20175;-87
2023/02/06 09:16:27;;;;;;;41.97;14.67;;;3.90;99.90;;;;;;5109326;28;20175;-85
2023/02/06 09:18:53;;;;;;;39.13;15.03;;;4.00;99.90;;;;;;5105952;28;20250;-86
2023/02/06 09:21:24;;;;;;;39.90;15.90;;;4.00;99.90;;;;;;5094330;28;20176;-86
2023/02/06 09:23:57;;;;;;;41.60;16.33;;;4.00;99.90;;;;;;5101909;28;20214;-86
2023/02/06 09:26:32;;;;;;;34.03;15.37;;;4.00;99.90;;;;;;5106213;28;20169;-87
2023/02/06 09:29:00;;;;;;;37.20;16.63;;;4.00;99.90;;;;;;5110174;28;20235;-87
2023/02/06 09:31:29;;;;;;;38.60;16.07;;;4.20;99.90;;;;;;5115084;28;20219;-85
2023/02/06 09:34:03;;;;;;;38.20;15.20;;;4.00;99.90;;;;;;5119290;28;20155;-86
2023/02/06 09:36:29;;;;;;;38.63;14.83;;;4.10;99.90;;;;;;5106467;28;20172;-87
2023/02/06 09:38:57;;;;;;;45.53;16.70;;;4.00;99.90;;;;;;5102534;28;20168;-84
2023/02/06 09:41:25;;;;;;;39.60;16.67;;;4.30;99.90;;;;;;5108196;28;20249;-86
2023/02/06 09:44:16;;;;;;;40.90;17.47;;;4.10;99.90;;;;;;5098257;28;20248;-86
2023/02/06 09:47:36;;;;;;;43.63;18.67;;;4.20;99.90;;;;;;5097810;28;20213;-86
2023/02/06 09:50:46;;;;;;;36.43;17.07;;;4.30;99.90;;;;;;5098172;28;20322;-87
2023/02/06 09:53:27;;;;;;;39.90;18.47;;;4.40;99.90;;;;;;5098503;28;20183;-84
2023/02/06 09:56:18;;;;;;;38.27;17.03;;;4.30;99.90;;;;;;5097237;28;20258;-87
2023/02/06 09:58:57;;;;;;;41.40;17.00;;;4.40;99.90;;;;;;5099231;28;20256;-87
2023/02/06 10:01:36;;;;;;;46.90;19.27;;;4.40;99.90;;;;;;5097627;28;20175;-86
2023/02/06 10:04:37;;;;;;;39.00;18.43;;;4.50;99.90;;;;;;5099132;28;20197;-87
2023/02/06 10:07:06;;;;;;;45.03;20.03;;;4.60;99.90;;;;;;5097059;28;20174;-85
2023/02/06 10:09:48;;;;;;;41.27;19.37;;;4.50;99.90;;;;;;5097453;28;20699;-85
2023/02/06 10:12:28;;;;;;;44.83;20.63;;;4.60;99.90;;;;;;5099330;28;20184;-87
2023/02/06 10:15:06;;;;;;;42.03;19.63;;;4.70;99.90;;;;;;5096863;28;20242;-86
2023/02/06 10:17:43;;;;;;;47.17;21.37;;;4.80;99.90;;;;;;5108583;28;20172;-83
2023/02/06 10:20:33;;;;;;;40.47;18.20;;;5.00;99.90;;;;;;5113628;28;20187;-85
2023/02/06 10:23:21;;;;;;;36.93;18.63;;;5.10;99.90;;;;;;5102926;28;20180;-86
2023/02/06 10:26:05;;;;;;;35.47;18.60;;;5.10;99.90;;;;;;5097187;28;20167;-87
2023/02/06 10:28:34;;;;;;;41.13;18.83;;;5.20;99.90;;;;;;5097304;28;20229;-88
2023/02/06 10:30:59;;;;;;;30.53;17.90;;;5.30;99.90;;;;;;5095921;28;20238;-87
2023/02/06 10:33:55;;;;;;;34.57;16.43;;;5.50;99.90;;;;;;5112715;28;20554;-87
2023/02/06 10:36:49;;;;;;;41.70;18.00;;;5.50;99.90;;;;;;5117911;28;20176;-86
2023/02/06 10:39:30;;;;;;;33.10;17.13;;;5.70;99.90;;;;;;5103195;28;20164;-86
2023/02/06 10:42:17;;;;;;;33.47;16.73;;;5.90;99.90;;;;;;5097229;28;20168;-86
2023/02/06 10:45:00;;;;;;;33.50;16.67;;;6.00;99.90;;;;;;5099113;28;20167;-87
2023/02/06 10:47:53;;;;;;;35.13;17.17;;;6.30;99.90;;;;;;5111941;28;20171;-86
2023/02/06 10:50:35;;;;;;;37.17;16.60;;;6.30;99.90;;;;;;5098501;28;20219;-88
2023/02/06 10:53:10;;;;;;;34.67;16.23;;;6.50;99.90;;;;;;5102856;28;20215;-83
2023/02/06 10:55:46;;;;;;;40.77;16.17;;;6.80;99.90;;;;;;5108564;28;20224;-86
2023/02/06 10:58:22;;;;;;;32.00;15.10;;;6.90;99.90;;;;;;5109783;28;20168;-86
2023/02/06 11:00:51;;;;;;;26.27;14.07;;;7.00;99.90;;;;;;5107106;28;20186;-85
2023/02/06 11:03:24;;;;;;;33.10;15.73;;;7.20;99.90;;;;;;5117500;28;20205;-85
2023/02/06 11:05:51;;;;;;;31.77;15.40;;;7.40;99.90;;;;;;5118466;28;20227;-84
2023/02/06 11:08:38;;;;;;;38.23;14.63;;;7.50;99.90;;;;;;5114965;28;20182;-84
2023/02/06 11:11:28;;;;;;;37.13;15.20;;;7.80;99.90;;;;;;5100217;28;20204;-87
2023/02/06 11:14:14;;;;;;;33.13;15.33;;;7.80;99.90;;;;;;5096587;28;20506;-86
2023/02/06 11:16:41;;;;;;;29.97;14.70;;;7.90;99.90;;;;;;5096911;28;20195;-83
2023/02/06 11:19:36;;;;;;;32.03;12.17;;;7.80;99.90;;;;;;5096078;28;20182;-86
2023/02/06 11:22:14;;;;;;;32.03;10.93;;;7.80;98.90;;;;;;5095727;28;20237;-83
2023/02/06 11:24:59;;;;;;;28.37;10.70;;;7.50;96.90;;;;;;5095827;28;20651;-86
2023/02/06 11:27:26;;;;;;;28.07;9.63;;;7.40;97.00;;;;;;5096638;28;20178;-85
2023/02/06 11:29:52;;;;;;;24.60;10.60;;;7.50;96.50;;;;;;5096831;28;20274;-84
2023/02/06 11:32:40;;;;;;;29.57;11.00;;;7.50;96.30;;;;;;5099535;28;20195;-84
2023/02/06 11:35:30;;;;;;;32.30;10.40;;;7.30;96.00;;;;;;5098781;28;20217;-86
2023/02/06 11:38:04;;;;;;;27.80;9.03;;;7.40;96.50;;;;;;5098560;28;20185;-86
2023/02/06 11:40:29;;;;;;;26.33;9.40;;;7.30;96.30;;;;;;5104493;28;20164;-84
2023/02/06 11:43:16;;;;;;;29.53;10.73;;;7.30;96.40;;;;;;5107442;28;20215;-87
2023/02/06 11:45:42;;;;;;;23.60;10.03;;;7.40;97.00;;;;;;5096215;28;20187;-87
2023/02/06 11:48:30;;;;;;;28.37;10.33;;;7.30;95.10;;;;;;5095841;28;20187;-86
2023/02/06 11:50:56;;;;;;;26.37;9.37;;;7.20;95.70;;;;;;5095633;28;20246;-84
2023/02/06 11:53:22;;;;;;;29.27;10.83;;;7.10;95.60;;;;;;5095277;28;20192;-82
2023/02/06 11:56:00;;;;;;;24.67;10.37;;;7.30;94.40;;;;;;5097021;28;20515;-86
2023/02/06 11:58:27;;;;;;;23.50;8.03;;;7.00;94.60;;;;;;5117270;28;20239;-84
2023/02/06 12:00:56;;;;;;;27.90;8.60;;;7.10;94.50;;;;;;5096754;28;20183;-86
2023/02/06 12:03:50;;;;;;;22.60;9.00;;;7.20;95.20;;;;;;5096708;28;20233;-84
2023/02/06 12:06:30;;;;;;;26.27;8.53;;;7.30;95.00;;;;;;5095855;28;20657;-87
2023/02/06 12:09:02;;;;;;;28.87;9.50;;;7.30;94.90;;;;;;5097257;28;20191;-86
2023/02/06 12:11:48;;;;;;;26.27;9.20;;;7.30;94.10;;;;;;5095623;28;20207;-86
2023/02/06 12:14:29;;;;;;;30.20;9.50;;;7.40;94.80;;;;;;5095942;28;20176;-86
2023/02/06 12:16:55;;;;;;;27.50;8.07;;;7.40;94.10;;;;;;5105766;28;20210;-86
2023/02/06 12:19:30;;;;;;;24.10;7.87;;;7.50;93.20;;;;;;5106311;28;20199;-86
2023/02/06 12:22:23;;;;;;;22.87;6.80;;;7.50;92.30;;;;;;5102616;28;20179;-84
2023/02/06 12:24:56;;;;;;;18.47;7.13;;;7.40;91.80;;;;;;5102805;28;20195;-86
2023/02/06 12:27:38;;;;;;;22.30;6.93;;;7.30;92.60;;;;;;5114087;28;20184;-85
2023/02/06 12:30:26;;;;;;;25.80;7.20;;;7.40;91.90;;;;;;5110494;28;20706;-85
2023/02/06 12:33:05;;;;;;;26.23;7.20;;;7.40;92.40;;;;;;5103892;28;20201;-86
2023/02/06 12:35:42;;;;;;;26.60;7.93;;;7.50;92.00;;;;;;5102079;28;20163;-84
2023/02/06 12:38:38;;;;;;;24.37;7.70;;;7.70;91.70;;;;;;5099865;28;20193;-84
2023/02/06 12:41:36;;;;;;;21.70;7.87;;;7.70;87.60;;;;;;5070378;28;20271;-85
2023/02/06 12:44:14;;;;;;;22.43;7.23;;;7.70;89.90;;;;;;5106095;28;20186;-86
2023/02/06 12:46:41;;;;;;;19.50;6.70;;;7.60;86.80;;;;;;5102497;28;20247;-86
2023/02/06 12:49:20;;;;;;;24.50;8.03;;;7.50;87.10;;;;;;5099547;28;20221;-84
2023/02/06 12:52:15;;;;;;;28.87;8.10;;;7.40;86.60;;;;;;5099999;28;20203;-86
2023/02/06 12:54:48;;;;;;;20.07;7.57;;;7.30;90.90;;;;;;5096774;28;20176;-86
2023/02/06 12:57:28;;;;;;;22.63;7.40;;;7.30;91.40;;;;;;5097871;28;20179;-87
2023/02/06 13:00:28;;;;;;;19.77;6.43;;;7.20;92.20;;;;;;5094904;28;20247;-86
2023/02/06 13:03:29;;;;;;;23.13;8.10;;;7.00;92.00;;;;;;5094205;28;20168;-86
2023/02/06 13:06:10;;;;;;;20.33;7.20;;;7.10;92.90;;;;;;5097923;28;20178;-87
2023/02/06 13:08:45;;;;;;;26.37;6.10;;;7.10;92.30;;;;;;5099287;28;20179;-85
2023/02/06 13:11:34;;;;;;;20.73;6.20;;;7.00;90.50;;;;;;5108095;28;20202;-83
2023/02/06 13:14:18;;;;;;;16.60;6.03;;;6.90;91.40;;;;;;5106601;28;20163;-84
2023/02/06 13:16:55;;;;;;;18.90;5.87;;;7.00;92.00;;;;;;5115721;28;20188;-86
2023/02/06 13:19:28;;;;;;;19.67;5.87;;;7.00;90.70;;;;;;5097682;28;20859;-85